sensor_id;sensor_type;location;lat;lon;timestamp;P1;durP1;ratioP1;P2;durP2;ratioP2
52858;SDS011;38721;53.098;6.596;2023-04-08T00:01:37;11.30;;;7.68;;
52858;SDS011;38721;53.098;6.596;2023-04-08T00:04:02;11.07;;;7.60;;
52858;SDS011;38721;53.098;6.596;2023-04-08T00:06:28;10.30;;;7.93;;
52858;SDS011;38721;53.098;6.596;2023-04-08T00:08:55;11.85;;;7.97;;
52858;SDS011;38721;53.098;6.596;2023-04-08T00:11:21;12.07;;;8.50;;
52858;SDS011;38721;53.098;6.596;2023-04-08T00:13:47;12.25;;;8.65;;
52858;SDS011;38721;53.098;6.596;2023-04-08T00:16:15;12.35;;;8.73;;
52858;SDS011;38721;53.098;6.596;2023-04-08T00:18:41;13.00;;;9.05;;
52858;SDS011;38721;53.098;6.596;2023-04-08T00:21:07;13.95;;;9.27;;
52858;SDS011;38721;53.098;6.596;2023-04-08T00:23:32;15.32;;;9.25;;
52858;SDS011;38721;53.098;6.596;2023-04-08T00:25:58;17.20;;;9.43;;
52858;SDS011;38721;53.098;6.596;2023-04-08T00:28:24;14.45;;;9.40;;
52858;SDS011;38721;53.098;6.596;2023-04-08T00:30:51;11.55;;;9.20;;
52858;SDS011;38721;53.098;6.596;2023-04-08T00:33:20;13.40;;;9.98;;
52858;SDS011;38721;53.098;6.596;2023-04-08T00:35:45;14.50;;;9.98;;
52858;SDS011;38721;53.098;6.596;2023-04-08T00:38:12;14.23;;;9.68;;
52858;SDS011;38721;53.098;6.596;2023-04-08T00:40:37;15.73;;;10.90;;
52858;SDS011;38721;53.098;6.596;2023-04-08T00:43:03;14.55;;;10.52;;
52858;SDS011;38721;53.098;6.596;2023-04-08T00:45:29;13.93;;;10.02;;
52858;SDS011;38721;53.098;6.596;2023-04-08T00:47:55;14.65;;;9.93;;
52858;SDS011;38721;53.098;6.596;2023-04-08T00:50:24;17.20;;;10.32;;
52858;SDS011;38721;53.098;6.596;2023-04-08T00:52:49;15.48;;;10.68;;
52858;SDS011;38721;53.098;6.596;2023-04-08T00:55:15;13.98;;;10.88;;
52858;SDS011;38721;53.098;6.596;2023-04-08T00:57:41;14.80;;;11.00;;
52858;SDS011;38721;53.098;6.596;2023-04-08T01:00:07;15.40;;;11.10;;
52858;SDS011;38721;53.098;6.596;2023-04-08T01:08:20;16.45;;;11.35;;
52858;SDS011;38721;53.098;6.596;2023-04-08T01:10:48;14.52;;;11.18;;
52858;SDS011;38721;53.098;6.596;2023-04-08T01:13:17;19.08;;;11.43;;
52858;SDS011;38721;53.098;6.596;2023-04-08T01:15:46;19.85;;;11.88;;
52858;SDS011;38721;53.098;6.596;2023-04-08T01:18:13;19.05;;;11.65;;
52858;SDS011;38721;53.098;6.596;2023-04-08T01:20:41;17.40;;;12.00;;
52858;SDS011;38721;53.098;6.596;2023-04-08T01:25:51;16.35;;;11.65;;
52858;SDS011;38721;53.098;6.596;2023-04-08T01:28:19;17.47;;;11.27;;
52858;SDS011;38721;53.098;6.596;2023-04-08T01:30:46;16.20;;;11.75;;
52858;SDS011;38721;53.098;6.596;2023-04-08T01:33:14;19.35;;;12.52;;
52858;SDS011;38721;53.098;6.596;2023-04-08T01:35:46;18.65;;;12.73;;
52858;SDS011;38721;53.098;6.596;2023-04-08T01:38:16;16.70;;;12.32;;
52858;SDS011;38721;53.098;6.596;2023-04-08T01:40:47;17.60;;;12.32;;
52858;SDS011;38721;53.098;6.596;2023-04-08T01:43:15;17.83;;;12.60;;
52858;SDS011;38721;53.098;6.596;2023-04-08T01:45:46;18.00;;;13.95;;
52858;SDS011;38721;53.098;6.596;2023-04-08T01:48:12;19.20;;;12.55;;
52858;SDS011;38721;53.098;6.596;2023-04-08T01:50:43;19.90;;;13.05;;
52858;SDS011;38721;53.098;6.596;2023-04-08T01:53:09;18.25;;;12.38;;
52858;SDS011;38721;53.098;6.596;2023-04-08T01:55:36;18.42;;;12.65;;
52858;SDS011;38721;53.098;6.596;2023-04-08T01:58:07;19.52;;;13.75;;
52858;SDS011;38721;53.098;6.596;2023-04-08T02:00:35;18.33;;;12.55;;
52858;SDS011;38721;53.098;6.596;2023-04-08T02:03:03;19.92;;;13.07;;
52858;SDS011;38721;53.098;6.596;2023-04-08T02:05:30;20.88;;;14.05;;
52858;SDS011;38721;53.098;6.596;2023-04-08T02:07:56;19.60;;;13.88;;
52858;SDS011;38721;53.098;6.596;2023-04-08T02:10:21;22.95;;;13.63;;
52858;SDS011;38721;53.098;6.596;2023-04-08T02:12:47;23.88;;;14.57;;
52858;SDS011;38721;53.098;6.596;2023-04-08T02:15:13;21.15;;;14.35;;
52858;SDS011;38721;53.098;6.596;2023-04-08T02:18:15;20.33;;;14.63;;
52858;SDS011;38721;53.098;6.596;2023-04-08T02:20:43;21.50;;;14.73;;
52858;SDS011;38721;53.098;6.596;2023-04-08T02:23:21;23.85;;;14.43;;
52858;SDS011;38721;53.098;6.596;2023-04-08T02:25:52;21.48;;;14.65;;
52858;SDS011;38721;53.098;6.596;2023-04-08T02:28:20;23.52;;;15.27;;
52858;SDS011;38721;53.098;6.596;2023-04-08T02:30:48;24.40;;;16.45;;
52858;SDS011;38721;53.098;6.596;2023-04-08T02:33:16;23.13;;;14.85;;
52858;SDS011;38721;53.098;6.596;2023-04-08T02:35:44;22.83;;;14.70;;
52858;SDS011;38721;53.098;6.596;2023-04-08T02:38:11;28.08;;;16.58;;
52858;SDS011;38721;53.098;6.596;2023-04-08T02:40:37;25.13;;;15.50;;
52858;SDS011;38721;53.098;6.596;2023-04-08T02:43:03;24.08;;;16.35;;
52858;SDS011;38721;53.098;6.596;2023-04-08T02:45:40;24.75;;;16.13;;
52858;SDS011;38721;53.098;6.596;2023-04-08T02:48:08;23.67;;;15.77;;
52858;SDS011;38721;53.098;6.596;2023-04-08T02:50:34;26.20;;;16.75;;
52858;SDS011;38721;53.098;6.596;2023-04-08T02:53:03;26.45;;;16.40;;
52858;SDS011;38721;53.098;6.596;2023-04-08T02:55:28;28.33;;;18.00;;
52858;SDS011;38721;53.098;6.596;2023-04-08T02:57:54;28.63;;;18.17;;
52858;SDS011;38721;53.098;6.596;2023-04-08T03:00:20;24.75;;;16.38;;
52858;SDS011;38721;53.098;6.596;2023-04-08T03:02:45;26.73;;;16.60;;
52858;SDS011;38721;53.098;6.596;2023-04-08T03:05:11;27.42;;;17.05;;
52858;SDS011;38721;53.098;6.596;2023-04-08T03:07:37;27.73;;;16.90;;
52858;SDS011;38721;53.098;6.596;2023-04-08T03:10:03;26.10;;;16.95;;
52858;SDS011;38721;53.098;6.596;2023-04-08T03:12:32;25.65;;;16.38;;
52858;SDS011;38721;53.098;6.596;2023-04-08T03:14:58;29.80;;;17.75;;
52858;SDS011;38721;53.098;6.596;2023-04-08T03:17:24;29.63;;;17.85;;
52858;SDS011;38721;53.098;6.596;2023-04-08T03:19:50;29.45;;;18.65;;
52858;SDS011;38721;53.098;6.596;2023-04-08T03:22:16;26.25;;;16.48;;
52858;SDS011;38721;53.098;6.596;2023-04-08T03:24:41;25.95;;;17.02;;
52858;SDS011;38721;53.098;6.596;2023-04-08T03:27:07;27.33;;;17.42;;
52858;SDS011;38721;53.098;6.596;2023-04-08T03:29:37;27.63;;;17.27;;
52858;SDS011;38721;53.098;6.596;2023-04-08T03:32:02;27.35;;;16.98;;
52858;SDS011;38721;53.098;6.596;2023-04-08T03:34:28;28.30;;;16.80;;
52858;SDS011;38721;53.098;6.596;2023-04-08T03:36:54;28.35;;;17.80;;
52858;SDS011;38721;53.098;6.596;2023-04-08T03:39:19;27.80;;;18.08;;
52858;SDS011;38721;53.098;6.596;2023-04-08T03:41:45;27.83;;;18.15;;
52858;SDS011;38721;53.098;6.596;2023-04-08T03:44:11;32.53;;;18.80;;
52858;SDS011;38721;53.098;6.596;2023-04-08T03:46:39;32.05;;;19.15;;
52858;SDS011;38721;53.098;6.596;2023-04-08T03:49:05;31.63;;;19.75;;
52858;SDS011;38721;53.098;6.596;2023-04-08T03:51:31;29.85;;;19.15;;
52858;SDS011;38721;53.098;6.596;2023-04-08T03:53:57;33.53;;;19.10;;
52858;SDS011;38721;53.098;6.596;2023-04-08T03:56:22;31.77;;;19.67;;
52858;SDS011;38721;53.098;6.596;2023-04-08T03:58:49;31.30;;;19.77;;
52858;SDS011;38721;53.098;6.596;2023-04-08T04:01:15;32.22;;;19.05;;
52858;SDS011;38721;53.098;6.596;2023-04-08T04:03:41;31.50;;;18.88;;
52858;SDS011;38721;53.098;6.596;2023-04-08T04:06:06;32.90;;;19.27;;
52858;SDS011;38721;53.098;6.596;2023-04-08T04:08:32;32.85;;;19.42;;
52858;SDS011;38721;53.098;6.596;2023-04-08T04:10:58;32.17;;;20.13;;
52858;SDS011;38721;53.098;6.596;2023-04-08T04:13:24;33.72;;;19.40;;
52858;SDS011;38721;53.098;6.596;2023-04-08T04:15:50;31.23;;;19.48;;
52858;SDS011;38721;53.098;6.596;2023-04-08T04:18:15;36.53;;;20.60;;
52858;SDS011;38721;53.098;6.596;2023-04-08T04:20:41;30.42;;;18.92;;
52858;SDS011;38721;53.098;6.596;2023-04-08T04:23:07;34.40;;;20.13;;
52858;SDS011;38721;53.098;6.596;2023-04-08T04:25:39;34.90;;;20.38;;
52858;SDS011;38721;53.098;6.596;2023-04-08T04:28:05;47.70;;;26.05;;
52858;SDS011;38721;53.098;6.596;2023-04-08T04:30:32;47.20;;;28.17;;
52858;SDS011;38721;53.098;6.596;2023-04-08T04:32:57;49.15;;;28.65;;
52858;SDS011;38721;53.098;6.596;2023-04-08T04:35:23;42.67;;;25.92;;
52858;SDS011;38721;53.098;6.596;2023-04-08T04:37:49;41.58;;;21.67;;
52858;SDS011;38721;53.098;6.596;2023-04-08T04:40:16;38.05;;;22.10;;
52858;SDS011;38721;53.098;6.596;2023-04-08T04:42:41;43.40;;;22.38;;
52858;SDS011;38721;53.098;6.596;2023-04-08T04:45:07;39.30;;;20.83;;
52858;SDS011;38721;53.098;6.596;2023-04-08T04:47:34;42.08;;;22.17;;
52858;SDS011;38721;53.098;6.596;2023-04-08T04:50:00;38.83;;;21.70;;
52858;SDS011;38721;53.098;6.596;2023-04-08T04:52:25;40.65;;;22.40;;
52858;SDS011;38721;53.098;6.596;2023-04-08T04:54:51;40.80;;;22.38;;
52858;SDS011;38721;53.098;6.596;2023-04-08T04:57:21;37.70;;;20.95;;
52858;SDS011;38721;53.098;6.596;2023-04-08T04:59:47;40.10;;;23.10;;
52858;SDS011;38721;53.098;6.596;2023-04-08T05:02:13;37.78;;;21.85;;
52858;SDS011;38721;53.098;6.596;2023-04-08T05:04:38;40.17;;;22.23;;
52858;SDS011;38721;53.098;6.596;2023-04-08T05:07:04;37.53;;;20.88;;
52858;SDS011;38721;53.098;6.596;2023-04-08T05:09:30;38.28;;;21.15;;
52858;SDS011;38721;53.098;6.596;2023-04-08T05:11:59;40.20;;;22.15;;
52858;SDS011;38721;53.098;6.596;2023-04-08T05:14:27;41.28;;;21.15;;
52858;SDS011;38721;53.098;6.596;2023-04-08T05:16:53;41.10;;;21.58;;
52858;SDS011;38721;53.098;6.596;2023-04-08T05:19:19;39.53;;;22.00;;
52858;SDS011;38721;53.098;6.596;2023-04-08T05:21:45;40.60;;;21.33;;
52858;SDS011;38721;53.098;6.596;2023-04-08T05:24:10;36.45;;;20.88;;
52858;SDS011;38721;53.098;6.596;2023-04-08T05:26:36;36.90;;;20.50;;
52858;SDS011;38721;53.098;6.596;2023-04-08T05:29:02;40.58;;;21.58;;
52858;SDS011;38721;53.098;6.596;2023-04-08T05:31:27;38.88;;;21.65;;
52858;SDS011;38721;53.098;6.596;2023-04-08T05:33:53;39.70;;;21.55;;
52858;SDS011;38721;53.098;6.596;2023-04-08T05:36:19;46.65;;;23.35;;
52858;SDS011;38721;53.098;6.596;2023-04-08T05:38:44;44.00;;;23.55;;
52858;SDS011;38721;53.098;6.596;2023-04-08T05:41:10;39.25;;;21.33;;
52858;SDS011;38721;53.098;6.596;2023-04-08T05:43:36;39.47;;;22.20;;
52858;SDS011;38721;53.098;6.596;2023-04-08T05:46:05;38.35;;;20.90;;
52858;SDS011;38721;53.098;6.596;2023-04-08T05:48:32;41.42;;;21.58;;
52858;SDS011;38721;53.098;6.596;2023-04-08T05:50:58;39.83;;;22.05;;
52858;SDS011;38721;53.098;6.596;2023-04-08T05:53:24;35.42;;;20.58;;
52858;SDS011;38721;53.098;6.596;2023-04-08T05:55:50;38.72;;;21.48;;
52858;SDS011;38721;53.098;6.596;2023-04-08T05:58:16;40.10;;;23.33;;
52858;SDS011;38721;53.098;6.596;2023-04-08T06:00:41;42.05;;;23.83;;
52858;SDS011;38721;53.098;6.596;2023-04-08T06:03:07;41.60;;;23.88;;
52858;SDS011;38721;53.098;6.596;2023-04-08T06:05:35;43.15;;;24.10;;
52858;SDS011;38721;53.098;6.596;2023-04-08T06:08:01;42.45;;;24.85;;
52858;SDS011;38721;53.098;6.596;2023-04-08T06:10:26;45.70;;;25.42;;
52858;SDS011;38721;53.098;6.596;2023-04-08T06:12:52;45.97;;;26.50;;
52858;SDS011;38721;53.098;6.596;2023-04-08T06:15:18;44.92;;;25.98;;
52858;SDS011;38721;53.098;6.596;2023-04-08T06:17:43;45.67;;;25.10;;
52858;SDS011;38721;53.098;6.596;2023-04-08T06:20:09;40.15;;;24.90;;
52858;SDS011;38721;53.098;6.596;2023-04-08T06:22:35;41.83;;;24.73;;
52858;SDS011;38721;53.098;6.596;2023-04-08T06:25:04;38.55;;;23.08;;
52858;SDS011;38721;53.098;6.596;2023-04-08T06:27:30;41.55;;;24.20;;
52858;SDS011;38721;53.098;6.596;2023-04-08T06:29:56;36.85;;;22.10;;
52858;SDS011;38721;53.098;6.596;2023-04-08T06:32:22;36.38;;;22.73;;
52858;SDS011;38721;53.098;6.596;2023-04-08T06:34:47;33.75;;;22.85;;
52858;SDS011;38721;53.098;6.596;2023-04-08T06:37:13;34.95;;;22.40;;
52858;SDS011;38721;53.098;6.596;2023-04-08T06:39:39;38.22;;;22.27;;
52858;SDS011;38721;53.098;6.596;2023-04-08T06:42:08;33.25;;;21.50;;
52858;SDS011;38721;53.098;6.596;2023-04-08T06:44:34;36.22;;;21.27;;
52858;SDS011;38721;53.098;6.596;2023-04-08T06:47:00;31.90;;;20.20;;
52858;SDS011;38721;53.098;6.596;2023-04-08T06:49:25;33.72;;;21.73;;
52858;SDS011;38721;53.098;6.596;2023-04-08T06:51:51;31.10;;;20.90;;
52858;SDS011;38721;53.098;6.596;2023-04-08T06:54:17;34.45;;;20.73;;
52858;SDS011;38721;53.098;6.596;2023-04-08T06:56:42;29.65;;;19.05;;
52858;SDS011;38721;53.098;6.596;2023-04-08T06:59:08;29.52;;;20.10;;
52858;SDS011;38721;53.098;6.596;2023-04-08T07:01:34;29.42;;;19.38;;
52858;SDS011;38721;53.098;6.596;2023-04-08T07:03:59;28.67;;;18.88;;
52858;SDS011;38721;53.098;6.596;2023-04-08T07:06:26;28.50;;;19.45;;
52858;SDS011;38721;53.098;6.596;2023-04-08T07:08:52;26.70;;;18.90;;
52858;SDS011;38721;53.098;6.596;2023-04-08T07:11:17;27.23;;;17.45;;
52858;SDS011;38721;53.098;6.596;2023-04-08T07:13:43;24.73;;;17.17;;
52858;SDS011;38721;53.098;6.596;2023-04-08T07:16:09;27.13;;;18.30;;
52858;SDS011;38721;53.098;6.596;2023-04-08T07:18:35;27.02;;;18.67;;
52858;SDS011;38721;53.098;6.596;2023-04-08T07:21:01;26.67;;;17.92;;
52858;SDS011;38721;53.098;6.596;2023-04-08T07:23:27;28.10;;;18.30;;
52858;SDS011;38721;53.098;6.596;2023-04-08T07:25:53;28.13;;;17.33;;
52858;SDS011;38721;53.098;6.596;2023-04-08T07:28:18;26.23;;;17.23;;
52858;SDS011;38721;53.098;6.596;2023-04-08T07:30:45;28.55;;;18.60;;
52858;SDS011;38721;53.098;6.596;2023-04-08T07:33:11;25.25;;;17.98;;
52858;SDS011;38721;53.098;6.596;2023-04-08T07:35:36;27.65;;;18.73;;
52858;SDS011;38721;53.098;6.596;2023-04-08T07:38:02;26.92;;;18.50;;
52858;SDS011;38721;53.098;6.596;2023-04-08T07:40:28;28.67;;;19.63;;
52858;SDS011;38721;53.098;6.596;2023-04-08T07:42:54;30.70;;;20.58;;
52858;SDS011;38721;53.098;6.596;2023-04-08T07:45:20;29.85;;;20.33;;
52858;SDS011;38721;53.098;6.596;2023-04-08T07:47:46;30.42;;;21.00;;
52858;SDS011;38721;53.098;6.596;2023-04-08T07:50:12;30.85;;;20.98;;
52858;SDS011;38721;53.098;6.596;2023-04-08T07:52:38;27.17;;;19.88;;
52858;SDS011;38721;53.098;6.596;2023-04-08T07:55:04;26.95;;;18.40;;
52858;SDS011;38721;53.098;6.596;2023-04-08T07:57:30;25.88;;;18.58;;
52858;SDS011;38721;53.098;6.596;2023-04-08T07:59:59;26.63;;;18.15;;
52858;SDS011;38721;53.098;6.596;2023-04-08T08:02:25;26.20;;;19.33;;
52858;SDS011;38721;53.098;6.596;2023-04-08T08:04:50;27.35;;;19.05;;
52858;SDS011;38721;53.098;6.596;2023-04-08T08:07:16;27.00;;;18.63;;
52858;SDS011;38721;53.098;6.596;2023-04-08T08:09:42;20.95;;;15.30;;
52858;SDS011;38721;53.098;6.596;2023-04-08T08:12:07;19.20;;;14.32;;
52858;SDS011;38721;53.098;6.596;2023-04-08T08:14:33;18.08;;;13.75;;
52858;SDS011;38721;53.098;6.596;2023-04-08T08:16:58;17.10;;;13.35;;
52858;SDS011;38721;53.098;6.596;2023-04-08T08:19:25;17.67;;;13.77;;
52858;SDS011;38721;53.098;6.596;2023-04-08T08:21:51;16.90;;;12.77;;
52858;SDS011;38721;53.098;6.596;2023-04-08T08:24:16;19.40;;;14.35;;
52858;SDS011;38721;53.098;6.596;2023-04-08T08:26:42;15.15;;;12.27;;
52858;SDS011;38721;53.098;6.596;2023-04-08T08:29:09;14.48;;;11.00;;
52858;SDS011;38721;53.098;6.596;2023-04-08T08:31:35;16.00;;;12.35;;
52858;SDS011;38721;53.098;6.596;2023-04-08T08:34:00;15.18;;;11.13;;
52858;SDS011;38721;53.098;6.596;2023-04-08T08:36:26;15.70;;;12.65;;
52858;SDS011;38721;53.098;6.596;2023-04-08T08:38:52;16.98;;;12.15;;
52858;SDS011;38721;53.098;6.596;2023-04-08T08:41:19;18.38;;;11.52;;
52858;SDS011;38721;53.098;6.596;2023-04-08T08:43:45;15.80;;;11.68;;
52858;SDS011;38721;53.098;6.596;2023-04-08T08:46:12;16.65;;;12.05;;
52858;SDS011;38721;53.098;6.596;2023-04-08T08:48:41;13.77;;;11.30;;
52858;SDS011;38721;53.098;6.596;2023-04-08T08:51:08;14.70;;;12.02;;
52858;SDS011;38721;53.098;6.596;2023-04-08T08:53:34;17.88;;;12.68;;
52858;SDS011;38721;53.098;6.596;2023-04-08T08:56:00;16.27;;;12.32;;
52858;SDS011;38721;53.098;6.596;2023-04-08T08:58:26;15.13;;;11.77;;
52858;SDS011;38721;53.098;6.596;2023-04-08T09:00:52;15.27;;;12.23;;
52858;SDS011;38721;53.098;6.596;2023-04-08T09:05:49;18.60;;;13.38;;
52858;SDS011;38721;53.098;6.596;2023-04-08T09:08:39;17.70;;;12.52;;
52858;SDS011;38721;53.098;6.596;2023-04-08T09:11:15;16.98;;;13.43;;
52858;SDS011;38721;53.098;6.596;2023-04-08T09:13:43;20.15;;;14.68;;
52858;SDS011;38721;53.098;6.596;2023-04-08T09:16:10;18.80;;;14.27;;
52858;SDS011;38721;53.098;6.596;2023-04-08T09:18:42;18.52;;;14.10;;
52858;SDS011;38721;53.098;6.596;2023-04-08T09:21:14;20.42;;;15.15;;
52858;SDS011;38721;53.098;6.596;2023-04-08T09:23:48;22.05;;;15.75;;
52858;SDS011;38721;53.098;6.596;2023-04-08T09:26:16;21.08;;;15.77;;
52858;SDS011;38721;53.098;6.596;2023-04-08T09:28:56;19.48;;;15.52;;
52858;SDS011;38721;53.098;6.596;2023-04-08T09:31:26;21.35;;;15.10;;
52858;SDS011;38721;53.098;6.596;2023-04-08T09:33:55;22.25;;;15.75;;
52858;SDS011;38721;53.098;6.596;2023-04-08T09:36:26;21.50;;;15.38;;
52858;SDS011;38721;53.098;6.596;2023-04-08T09:38:55;21.60;;;15.85;;
52858;SDS011;38721;53.098;6.596;2023-04-08T09:41:22;22.60;;;15.77;;
52858;SDS011;38721;53.098;6.596;2023-04-08T09:43:52;20.35;;;14.93;;
52858;SDS011;38721;53.098;6.596;2023-04-08T09:46:34;18.88;;;14.38;;
52858;SDS011;38721;53.098;6.596;2023-04-08T09:49:06;21.73;;;15.02;;
52858;SDS011;38721;53.098;6.596;2023-04-08T09:54:25;19.45;;;14.77;;
52858;SDS011;38721;53.098;6.596;2023-04-08T09:57:16;20.38;;;15.40;;
52858;SDS011;38721;53.098;6.596;2023-04-08T09:59:56;20.00;;;14.73;;
52858;SDS011;38721;53.098;6.596;2023-04-08T10:02:29;20.02;;;13.98;;
52858;SDS011;38721;53.098;6.596;2023-04-08T10:07:31;18.60;;;13.07;;
52858;SDS011;38721;53.098;6.596;2023-04-08T10:09:58;20.42;;;14.75;;
52858;SDS011;38721;53.098;6.596;2023-04-08T10:12:24;18.92;;;14.43;;
52858;SDS011;38721;53.098;6.596;2023-04-08T10:17:50;19.25;;;13.50;;
52858;SDS011;38721;53.098;6.596;2023-04-08T10:20:39;20.15;;;14.45;;
52858;SDS011;38721;53.098;6.596;2023-04-08T10:23:06;19.35;;;13.32;;
52858;SDS011;38721;53.098;6.596;2023-04-08T10:25:33;19.17;;;13.25;;
52858;SDS011;38721;53.098;6.596;2023-04-08T10:28:01;22.05;;;13.70;;
52858;SDS011;38721;53.098;6.596;2023-04-08T10:30:39;18.10;;;12.63;;
52858;SDS011;38721;53.098;6.596;2023-04-08T10:33:10;15.25;;;11.57;;
52858;SDS011;38721;53.098;6.596;2023-04-08T10:35:41;16.00;;;12.05;;
52858;SDS011;38721;53.098;6.596;2023-04-08T10:38:12;19.30;;;13.60;;
52858;SDS011;38721;53.098;6.596;2023-04-08T10:40:39;17.58;;;13.18;;
52858;SDS011;38721;53.098;6.596;2023-04-08T10:43:11;15.38;;;12.10;;
52858;SDS011;38721;53.098;6.596;2023-04-08T10:45:38;16.50;;;11.55;;
52858;SDS011;38721;53.098;6.596;2023-04-08T10:50:36;15.23;;;11.73;;
52858;SDS011;38721;53.098;6.596;2023-04-08T10:53:02;14.18;;;11.07;;
52858;SDS011;38721;53.098;6.596;2023-04-08T10:55:30;14.90;;;11.18;;
52858;SDS011;38721;53.098;6.596;2023-04-08T10:58:08;15.10;;;11.02;;
52858;SDS011;38721;53.098;6.596;2023-04-08T11:00:38;13.95;;;11.30;;
52858;SDS011;38721;53.098;6.596;2023-04-08T11:03:05;15.55;;;11.00;;
52858;SDS011;38721;53.098;6.596;2023-04-08T11:05:32;14.80;;;11.30;;
52858;SDS011;38721;53.098;6.596;2023-04-08T11:08:02;16.00;;;12.20;;
52858;SDS011;38721;53.098;6.596;2023-04-08T11:10:35;16.55;;;12.60;;
52858;SDS011;38721;53.098;6.596;2023-04-08T11:13:06;15.93;;;11.70;;
52858;SDS011;38721;53.098;6.596;2023-04-08T11:15:32;18.15;;;12.52;;
52858;SDS011;38721;53.098;6.596;2023-04-08T11:18:01;17.27;;;12.63;;
52858;SDS011;38721;53.098;6.596;2023-04-08T11:20:27;16.35;;;12.10;;
52858;SDS011;38721;53.098;6.596;2023-04-08T11:23:00;18.38;;;12.90;;
52858;SDS011;38721;53.098;6.596;2023-04-08T11:25:26;19.17;;;13.98;;
52858;SDS011;38721;53.098;6.596;2023-04-08T11:27:52;19.98;;;13.95;;
52858;SDS011;38721;53.098;6.596;2023-04-08T11:30:18;21.63;;;13.98;;
52858;SDS011;38721;53.098;6.596;2023-04-08T11:32:45;19.63;;;14.57;;
52858;SDS011;38721;53.098;6.596;2023-04-08T11:35:11;18.65;;;13.60;;
52858;SDS011;38721;53.098;6.596;2023-04-08T11:37:40;19.40;;;13.90;;
52858;SDS011;38721;53.098;6.596;2023-04-08T11:40:07;20.17;;;13.32;;
52858;SDS011;38721;53.098;6.596;2023-04-08T11:42:34;20.38;;;15.07;;
52858;SDS011;38721;53.098;6.596;2023-04-08T11:45:00;18.92;;;13.70;;
52858;SDS011;38721;53.098;6.596;2023-04-08T11:47:33;20.83;;;14.63;;
52858;SDS011;38721;53.098;6.596;2023-04-08T11:50:00;20.00;;;14.68;;
52858;SDS011;38721;53.098;6.596;2023-04-08T11:52:43;20.02;;;14.55;;
52858;SDS011;38721;53.098;6.596;2023-04-08T11:55:10;20.92;;;14.20;;
52858;SDS011;38721;53.098;6.596;2023-04-08T11:57:37;20.75;;;14.75;;
52858;SDS011;38721;53.098;6.596;2023-04-08T12:00:06;22.92;;;16.20;;
52858;SDS011;38721;53.098;6.596;2023-04-08T12:02:33;24.00;;;16.02;;
52858;SDS011;38721;53.098;6.596;2023-04-08T12:04:59;24.70;;;16.85;;
52858;SDS011;38721;53.098;6.596;2023-04-08T12:07:28;24.98;;;17.38;;
52858;SDS011;38721;53.098;6.596;2023-04-08T12:09:53;24.60;;;16.75;;
52858;SDS011;38721;53.098;6.596;2023-04-08T12:12:19;25.00;;;17.50;;
52858;SDS011;38721;53.098;6.596;2023-04-08T12:14:45;28.25;;;17.75;;
52858;SDS011;38721;53.098;6.596;2023-04-08T12:17:10;25.75;;;17.25;;
52858;SDS011;38721;53.098;6.596;2023-04-08T12:19:36;24.58;;;17.80;;
52858;SDS011;38721;53.098;6.596;2023-04-08T12:22:02;25.50;;;16.45;;
52858;SDS011;38721;53.098;6.596;2023-04-08T12:24:27;26.88;;;18.30;;
52858;SDS011;38721;53.098;6.596;2023-04-08T12:26:56;24.50;;;17.30;;
52858;SDS011;38721;53.098;6.596;2023-04-08T12:29:22;25.70;;;17.65;;
52858;SDS011;38721;53.098;6.596;2023-04-08T12:31:47;23.40;;;17.58;;
52858;SDS011;38721;53.098;6.596;2023-04-08T12:34:13;24.83;;;17.40;;
52858;SDS011;38721;53.098;6.596;2023-04-08T12:36:47;28.67;;;19.48;;
52858;SDS011;38721;53.098;6.596;2023-04-08T12:39:13;27.98;;;20.60;;
52858;SDS011;38721;53.098;6.596;2023-04-08T12:41:39;30.00;;;20.90;;
52858;SDS011;38721;53.098;6.596;2023-04-08T12:44:05;68.78;;;49.92;;
52858;SDS011;38721;53.098;6.596;2023-04-08T12:46:31;99.13;;;66.25;;
52858;SDS011;38721;53.098;6.596;2023-04-08T12:48:57;1999.90;;;999.90;;
52858;SDS011;38721;53.098;6.596;2023-04-08T12:51:23;1026.45;;;658.63;;
52858;SDS011;38721;53.098;6.596;2023-04-08T12:53:50;777.63;;;556.65;;
52858;SDS011;38721;53.098;6.596;2023-04-08T12:56:16;73.82;;;54.63;;
52858;SDS011;38721;53.098;6.596;2023-04-08T12:58:42;35.63;;;24.50;;
52858;SDS011;38721;53.098;6.596;2023-04-08T13:01:08;35.88;;;27.20;;
52858;SDS011;38721;53.098;6.596;2023-04-08T13:03:33;32.35;;;23.27;;
52858;SDS011;38721;53.098;6.596;2023-04-08T13:06:00;34.97;;;23.58;;
52858;SDS011;38721;53.098;6.596;2023-04-08T13:08:26;31.20;;;22.42;;
52858;SDS011;38721;53.098;6.596;2023-04-08T13:10:52;34.50;;;25.75;;
52858;SDS011;38721;53.098;6.596;2023-04-08T13:13:20;36.22;;;28.92;;
52858;SDS011;38721;53.098;6.596;2023-04-08T13:15:46;28.33;;;20.80;;
52858;SDS011;38721;53.098;6.596;2023-04-08T13:18:12;26.25;;;18.33;;
52858;SDS011;38721;53.098;6.596;2023-04-08T13:20:38;34.42;;;24.52;;
52858;SDS011;38721;53.098;6.596;2023-04-08T13:23:03;41.17;;;34.85;;
52858;SDS011;38721;53.098;6.596;2023-04-08T13:25:29;27.67;;;20.08;;
52858;SDS011;38721;53.098;6.596;2023-04-08T13:27:55;33.22;;;27.73;;
52858;SDS011;38721;53.098;6.596;2023-04-08T13:30:21;41.83;;;33.25;;
52858;SDS011;38721;53.098;6.596;2023-04-08T13:32:47;36.47;;;24.70;;
52858;SDS011;38721;53.098;6.596;2023-04-08T13:35:12;30.67;;;21.88;;
52858;SDS011;38721;53.098;6.596;2023-04-08T13:37:38;28.30;;;20.58;;
52858;SDS011;38721;53.098;6.596;2023-04-08T13:40:04;26.30;;;18.88;;
52858;SDS011;38721;53.098;6.596;2023-04-08T13:42:30;35.67;;;26.13;;
52858;SDS011;38721;53.098;6.596;2023-04-08T13:44:57;27.63;;;19.30;;
52858;SDS011;38721;53.098;6.596;2023-04-08T13:49:57;55.13;;;38.88;;
52858;SDS011;38721;53.098;6.596;2023-04-08T13:52:23;168.77;;;125.80;;
52858;SDS011;38721;53.098;6.596;2023-04-08T13:54:48;50.83;;;38.33;;
52858;SDS011;38721;53.098;6.596;2023-04-08T13:57:14;26.70;;;20.25;;
52858;SDS011;38721;53.098;6.596;2023-04-08T13:59:39;27.75;;;20.10;;
52858;SDS011;38721;53.098;6.596;2023-04-08T14:02:08;29.70;;;23.27;;
52858;SDS011;38721;53.098;6.596;2023-04-08T14:04:33;30.88;;;22.30;;
52858;SDS011;38721;53.098;6.596;2023-04-08T14:06:59;30.10;;;23.02;;
52858;SDS011;38721;53.098;6.596;2023-04-08T14:09:25;65.88;;;43.70;;
52858;SDS011;38721;53.098;6.596;2023-04-08T14:11:51;30.55;;;23.58;;
52858;SDS011;38721;53.098;6.596;2023-04-08T14:14:16;31.63;;;23.02;;
52858;SDS011;38721;53.098;6.596;2023-04-08T14:16:43;36.28;;;29.23;;
52858;SDS011;38721;53.098;6.596;2023-04-08T14:19:12;33.58;;;27.00;;
52858;SDS011;38721;53.098;6.596;2023-04-08T14:21:38;27.90;;;22.45;;
52858;SDS011;38721;53.098;6.596;2023-04-08T14:24:04;26.45;;;21.38;;
52858;SDS011;38721;53.098;6.596;2023-04-08T14:26:30;24.58;;;20.20;;
52858;SDS011;38721;53.098;6.596;2023-04-08T14:29:00;28.23;;;21.42;;
52858;SDS011;38721;53.098;6.596;2023-04-08T14:31:30;28.45;;;21.23;;
52858;SDS011;38721;53.098;6.596;2023-04-08T14:33:56;25.35;;;20.60;;
52858;SDS011;38721;53.098;6.596;2023-04-08T14:36:25;26.75;;;20.00;;
52858;SDS011;38721;53.098;6.596;2023-04-08T14:38:52;25.90;;;21.45;;
52858;SDS011;38721;53.098;6.596;2023-04-08T14:41:18;27.70;;;20.92;;
52858;SDS011;38721;53.098;6.596;2023-04-08T14:43:45;24.13;;;19.90;;
52858;SDS011;38721;53.098;6.596;2023-04-08T14:46:11;25.52;;;20.90;;